createdAt,value
2023-02-08T00:01:00.716Z,10.30
2023-02-08T00:03:29.588Z,10.00
2023-02-08T00:05:56.787Z,9.70
2023-02-08T00:08:23.980Z,11.10
2023-02-08T00:10:51.634Z,10.60
2023-02-08T00:13:19.311Z,10.60
2023-02-08T00:15:46.547Z,10.80
2023-02-08T00:18:15.610Z,10.50
2023-02-08T00:20:43.101Z,10.50
2023-02-08T00:23:11.023Z,10.60
2023-02-08T00:25:39.432Z,12.20
2023-02-08T00:28:09.395Z,12.30
2023-02-08T00:30:38.077Z,11.60
2023-02-08T00:33:05.911Z,11.40
2023-02-08T00:35:33.325Z,11.20
2023-02-08T00:38:00.885Z,10.90
2023-02-08T00:40:27.906Z,10.40
2023-02-08T00:42:54.996Z,11.80
2023-02-08T00:45:24.094Z,9.10
2023-02-08T00:47:51.377Z,11.00
2023-02-08T00:50:19.810Z,10.10
2023-02-08T00:52:47.157Z,9.60
2023-02-08T00:55:14.508Z,10.70
2023-02-08T00:57:42.088Z,9.60
2023-02-08T01:00:12.511Z,11.30
2023-02-08T01:02:41.360Z,11.20
2023-02-08T01:05:09.282Z,11.70
2023-02-08T01:07:38.109Z,9.90
2023-02-08T01:10:06.454Z,10.20
2023-02-08T01:12:35.623Z,12.00
2023-02-08T01:15:03.045Z,8.50
2023-02-08T01:17:30.940Z,10.60
2023-02-08T01:19:58.351Z,10.80
2023-02-08T01:22:25.514Z,10.70
2023-02-08T01:24:53.906Z,11.20
2023-02-08T01:27:21.898Z,8.80
2023-02-08T01:29:49.286Z,10.10
2023-02-08T01:32:16.621Z,10.00
2023-02-08T01:34:44.388Z,11.70
2023-02-08T01:37:12.077Z,11.90
2023-02-08T01:39:40.307Z,10.50
2023-02-08T01:42:07.359Z,11.70
2023-02-08T01:45:13.581Z,10.30
2023-02-08T01:47:44.763Z,11.10
2023-02-08T01:50:13.395Z,10.60
2023-02-08T01:52:42.933Z,10.80
2023-02-08T01:55:16.891Z,10.80
2023-02-08T01:57:46.096Z,9.20
2023-02-08T02:00:16.966Z,10.60
2023-02-08T02:02:46.333Z,9.50
2023-02-08T02:05:13.815Z,10.50
2023-02-08T02:07:40.942Z,10.00
2023-02-08T02:10:14.774Z,10.80
2023-02-08T02:12:44.008Z,9.20
2023-02-08T02:15:12.297Z,10.80
2023-02-08T02:17:40.736Z,10.80
2023-02-08T02:20:23.992Z,10.90
2023-02-08T02:23:19.554Z,8.00
2023-02-08T02:26:16.348Z,11.10
2023-02-08T02:28:43.500Z,10.50
2023-02-08T02:31:49.176Z,10.50
2023-02-08T02:34:39.109Z,8.50
2023-02-08T02:37:21.289Z,9.20
2023-02-08T02:40:21.874Z,9.20
2023-02-08T02:43:32.956Z,10.50
2023-02-08T02:46:24.702Z,8.50
2023-02-08T02:49:03.991Z,9.70
2023-02-08T02:52:00.866Z,9.70
2023-02-08T02:54:32.631Z,10.30
2023-02-08T02:57:02.980Z,7.70
2023-02-08T02:59:29.898Z,10.90
2023-02-08T03:01:57.392Z,9.60
2023-02-08T03:04:33.377Z,10.20
2023-02-08T03:07:20.129Z,9.80
2023-02-08T03:10:21.487Z,9.30
2023-02-08T03:12:57.319Z,9.70
2023-02-08T03:15:41.672Z,10.20
2023-02-08T03:18:35.485Z,9.60
2023-02-08T03:21:10.947Z,8.90
2023-02-08T03:24:27.123Z,10.70
2023-02-08T03:27:07.465Z,8.60
2023-02-08T03:29:42.962Z,9.00
2023-02-08T03:32:25.410Z,9.80
2023-02-08T03:34:58.386Z,8.00
2023-02-08T03:37:28.632Z,7.70
2023-02-08T03:46:30.516Z,10.20
2023-02-08T03:49:21.678Z,10.40
2023-02-08T03:51:48.752Z,10.90
2023-02-08T03:54:20.316Z,9.20
2023-02-08T03:56:52.347Z,10.90
2023-02-08T03:59:33.619Z,9.40
2023-02-08T04:02:04.715Z,7.40
2023-02-08T04:04:37.263Z,8.80
2023-02-08T04:07:05.012Z,10.20
2023-02-08T04:09:32.744Z,8.30
2023-02-08T04:12:00.700Z,7.70
2023-02-08T04:14:27.970Z,8.70
2023-02-08T04:16:59.310Z,7.00
2023-02-08T04:19:27.151Z,9.30
2023-02-08T04:21:54.433Z,8.80
2023-02-08T04:24:22.542Z,8.30
2023-02-08T04:26:49.934Z,8.60
2023-02-08T04:29:17.287Z,8.60
2023-02-08T04:31:45.329Z,9.00
2023-02-08T04:34:13.190Z,8.40
2023-02-08T04:36:40.282Z,8.30
2023-02-08T04:39:07.686Z,9.70
2023-02-08T04:41:35.004Z,9.50
2023-02-08T04:44:02.261Z,8.50
2023-02-08T04:46:29.806Z,7.50
2023-02-08T04:48:58.828Z,7.10
2023-02-08T04:51:26.656Z,7.20
2023-02-08T04:53:53.826Z,8.70
2023-02-08T04:56:20.921Z,10.10
2023-02-08T04:58:48.762Z,8.60
2023-02-08T05:01:16.976Z,8.10
2023-02-08T05:03:44.654Z,8.80
2023-02-08T05:06:12.034Z,7.80
2023-02-08T05:08:39.603Z,9.70
2023-02-08T05:11:06.818Z,8.30
2023-02-08T05:13:34.600Z,7.80
2023-02-08T05:16:02.164Z,8.00
2023-02-08T05:18:32.397Z,9.70
2023-02-08T05:21:00.228Z,9.20
2023-02-08T05:23:28.049Z,8.70
2023-02-08T05:25:55.279Z,8.60
2023-02-08T05:35:55.963Z,8.70
2023-02-08T05:38:23.514Z,8.90
2023-02-08T05:40:50.670Z,9.10
2023-02-08T05:43:17.667Z,8.90
2023-02-08T05:45:45.179Z,7.30
2023-02-08T05:48:12.492Z,9.20
2023-02-08T05:50:40.086Z,7.30
2023-02-08T05:53:10.091Z,8.30
2023-02-08T05:55:37.531Z,6.90
2023-02-08T05:58:05.081Z,8.50
2023-02-08T06:00:32.856Z,9.10
2023-02-08T06:03:00.206Z,8.70
2023-02-08T06:05:27.890Z,8.10
2023-02-08T06:07:55.134Z,8.80
2023-02-08T06:10:22.540Z,8.40
2023-02-08T06:12:51.569Z,9.30
2023-02-08T06:15:19.779Z,8.90
2023-02-08T06:17:48.673Z,9.40
2023-02-08T06:20:17.216Z,8.90
2023-02-08T06:22:44.461Z,9.70
2023-02-08T06:25:11.821Z,9.70
2023-02-08T06:27:39.575Z,9.40
2023-02-08T06:30:07.019Z,9.50
2023-02-08T06:32:35.242Z,8.60
2023-02-08T06:35:03.247Z,8.70
2023-02-08T06:37:30.942Z,7.40
2023-02-08T06:40:00.990Z,8.70
2023-02-08T06:42:29.655Z,8.90
2023-02-08T06:44:58.656Z,9.10
2023-02-08T06:47:26.429Z,9.20
2023-02-08T06:49:53.973Z,8.50
2023-02-08T06:52:21.653Z,8.90
2023-02-08T06:54:49.286Z,8.70
2023-02-08T06:57:16.680Z,8.30
2023-02-08T06:59:46.723Z,9.30
2023-02-08T07:02:17.553Z,8.50
2023-02-08T07:04:45.735Z,8.60
2023-02-08T07:07:15.317Z,8.40
2023-02-08T07:09:42.844Z,8.10
2023-02-08T07:12:10.201Z,8.50
2023-02-08T07:14:40.641Z,6.90
2023-02-08T07:17:08.482Z,7.30
2023-02-08T07:19:36.142Z,7.70
2023-02-08T07:22:08.471Z,7.50
2023-02-08T07:24:40.482Z,7.60
2023-02-08T07:27:09.065Z,6.00
2023-02-08T07:29:36.553Z,7.40
2023-02-08T07:32:04.008Z,6.60
2023-02-08T07:34:33.427Z,7.10
2023-02-08T07:37:02.688Z,6.80
2023-02-08T07:39:31.829Z,7.10
2023-02-08T07:41:59.681Z,7.20
2023-02-08T07:44:28.548Z,7.30
2023-02-08T07:46:56.607Z,6.70
2023-02-08T07:49:23.670Z,7.20
2023-02-08T07:51:52.968Z,5.30
2023-02-08T07:54:20.377Z,6.50
2023-02-08T07:56:50.769Z,6.80
2023-02-08T07:59:18.404Z,6.90
2023-02-08T08:01:45.929Z,6.90
2023-02-08T08:05:16.194Z,6.40
2023-02-08T08:07:45.297Z,6.60
2023-02-08T08:10:12.772Z,5.70
2023-02-08T08:12:41.332Z,5.80
2023-02-08T08:15:09.814Z,5.60
2023-02-08T08:17:37.795Z,5.70
2023-02-08T08:20:05.925Z,5.10
2023-02-08T08:22:33.926Z,5.60
2023-02-08T08:25:01.343Z,5.90
2023-02-08T08:27:29.240Z,6.10
2023-02-08T08:29:56.560Z,6.20
2023-02-08T08:32:24.638Z,5.80
2023-02-08T08:34:54.471Z,5.70
2023-02-08T08:37:23.873Z,4.10
2023-02-08T08:39:54.332Z,6.60
2023-02-08T08:42:22.238Z,5.80
2023-02-08T08:44:54.777Z,6.70
2023-02-08T08:47:22.917Z,5.30
2023-02-08T08:49:51.324Z,7.30
2023-02-08T08:52:19.364Z,6.30
2023-02-08T08:54:46.954Z,7.10
2023-02-08T08:57:16.720Z,5.70
2023-02-08T08:59:44.090Z,6.10
2023-02-08T09:02:16.028Z,6.90
2023-02-08T09:04:43.322Z,6.20
2023-02-08T09:07:10.610Z,5.10
2023-02-08T09:09:37.687Z,5.70
2023-02-08T09:12:05.347Z,5.70
2023-02-08T09:14:32.745Z,5.30
2023-02-08T09:17:01.531Z,4.40
2023-02-08T09:19:29.453Z,5.70
2023-02-08T09:21:58.141Z,5.90
2023-02-08T09:24:25.299Z,6.50
2023-02-08T09:26:52.472Z,6.80
2023-02-08T09:29:21.212Z,6.60
2023-02-08T09:31:48.270Z,5.10
2023-02-08T09:34:15.319Z,5.60
2023-02-08T09:36:42.253Z,5.00
2023-02-08T09:39:20.892Z,6.90
2023-02-08T09:42:18.640Z,5.80
2023-02-08T09:45:10.476Z,5.30
2023-02-08T09:48:09.114Z,5.90
2023-02-08T09:50:39.807Z,5.90
2023-02-08T09:53:29.145Z,5.80
2023-02-08T09:56:00.696Z,5.90
2023-02-08T09:58:31.118Z,5.90
2023-02-08T10:00:58.381Z,6.00
2023-02-08T10:03:36.158Z,5.70
2023-02-08T10:06:04.993Z,6.50
2023-02-08T10:08:35.617Z,7.10
2023-02-08T10:11:15.494Z,6.30
2023-02-08T10:14:22.026Z,5.90
2023-02-08T10:17:27.429Z,6.10
2023-02-08T10:20:08.504Z,5.60
2023-02-08T10:22:48.889Z,7.00
2023-02-08T10:25:45.976Z,6.90
2023-02-08T10:28:43.940Z,7.30
2023-02-08T10:31:33.500Z,4.40
2023-02-08T10:34:19.231Z,5.30
2023-02-08T10:36:46.152Z,6.00
2023-02-08T10:39:16.522Z,6.30
2023-02-08T10:41:43.728Z,6.20
2023-02-08T10:44:26.044Z,6.40
2023-02-08T10:46:57.448Z,6.80
2023-02-08T10:49:35.181Z,7.20
2023-02-08T10:52:02.659Z,6.10
2023-02-08T10:54:30.015Z,7.20
2023-02-08T10:57:05.181Z,7.20
2023-02-08T11:00:00.152Z,6.70
2023-02-08T11:02:31.416Z,6.90
2023-02-08T11:05:02.419Z,6.70
2023-02-08T11:07:29.647Z,4.90
2023-02-08T11:10:18.413Z,5.90
2023-02-08T11:12:59.859Z,6.20
2023-02-08T11:15:34.343Z,5.70
2023-02-08T11:18:02.475Z,5.80
2023-02-08T11:20:39.321Z,4.80
2023-02-08T11:23:20.021Z,4.70
2023-02-08T11:25:47.093Z,4.30
2023-02-08T11:28:30.236Z,5.60
2023-02-08T11:31:01.920Z,6.90
2023-02-08T11:33:29.980Z,7.10
2023-02-08T11:36:00.924Z,5.20
2023-02-08T11:38:28.394Z,7.10
2023-02-08T11:40:58.071Z,7.00
2023-02-08T11:43:35.955Z,6.30
2023-02-08T11:46:04.494Z,4.30
2023-02-08T11:48:42.740Z,6.50
2023-02-08T11:51:09.635Z,6.00
2023-02-08T11:56:42.630Z,6.40
2023-02-08T11:59:12.692Z,7.70
2023-02-08T12:01:40.628Z,5.70
2023-02-08T12:04:10.190Z,6.50
2023-02-08T12:06:55.020Z,7.00
2023-02-08T12:09:47.373Z,6.90
2023-02-08T12:12:29.011Z,6.40
2023-02-08T12:15:24.796Z,4.90
2023-02-08T12:18:03.165Z,6.30
2023-02-08T12:20:33.490Z,6.10
2023-02-08T12:23:31.168Z,7.30
2023-02-08T12:26:19.597Z,5.90
2023-02-08T12:29:11.127Z,5.70
2023-02-08T12:31:46.129Z,4.30
2023-02-08T12:34:18.877Z,4.80
2023-02-08T12:40:35.662Z,6.50
2023-02-08T12:43:04.763Z,5.70
2023-02-08T12:45:52.980Z,6.10
2023-02-08T12:48:28.903Z,5.60
2023-02-08T12:50:58.375Z,5.80
2023-02-08T12:53:34.576Z,5.80
2023-02-08T12:56:03.396Z,6.30
2023-02-08T12:58:31.692Z,7.50
2023-02-08T13:01:43.517Z,6.40
2023-02-08T13:04:14.758Z,5.10
2023-02-08T13:06:44.646Z,4.60
2023-02-08T13:09:19.393Z,6.60
2023-02-08T13:12:16.758Z,6.00
2023-02-08T13:14:53.413Z,6.50
2023-02-08T13:17:20.189Z,7.00
2023-02-08T13:20:24.998Z,5.70
2023-02-08T13:22:51.547Z,7.10
2023-02-08T13:25:36.318Z,7.30
2023-02-08T13:28:04.525Z,6.70
2023-02-08T13:30:31.276Z,8.70
2023-02-08T13:32:58.824Z,7.40
2023-02-08T13:35:28.904Z,6.40
2023-02-08T13:38:06.663Z,6.70
2023-02-08T13:40:36.685Z,6.80
2023-02-08T13:43:08.831Z,7.40
2023-02-08T13:45:42.602Z,5.60
2023-02-08T13:48:14.038Z,4.90
2023-02-08T13:50:56.363Z,4.60
2023-02-08T13:53:37.632Z,5.90
2023-02-08T13:56:11.364Z,5.20
2023-02-08T13:59:00.235Z,5.70
2023-02-08T14:01:34.060Z,4.70
2023-02-08T14:04:09.361Z,6.30
2023-02-08T14:06:41.562Z,6.70
2023-02-08T14:09:15.052Z,6.10
2023-02-08T14:11:48.090Z,5.70
2023-02-08T14:14:28.862Z,4.60
2023-02-08T14:17:04.274Z,6.20
2023-02-08T14:19:31.740Z,5.90
2023-02-08T14:22:01.680Z,4.50
2023-02-08T14:24:33.651Z,5.10
2023-02-08T14:27:22.294Z,5.30
2023-02-08T14:30:08.240Z,5.30
2023-02-08T14:32:39.328Z,4.20
2023-02-08T14:35:26.293Z,5.90
2023-02-08T14:38:23.491Z,5.20
2023-02-08T14:40:54.535Z,4.70
2023-02-08T14:43:34.029Z,5.80
2023-02-08T14:46:41.867Z,5.40
2023-02-08T14:49:12.893Z,5.90
2023-02-08T14:51:57.838Z,5.70
2023-02-08T14:54:52.188Z,6.10
2023-02-08T14:57:27.349Z,6.00
2023-02-08T14:59:55.034Z,5.60
2023-02-08T15:02:23.722Z,6.40
2023-02-08T15:04:52.690Z,6.00
2023-02-08T15:07:37.463Z,6.60
2023-02-08T15:10:05.734Z,6.70
2023-02-08T15:12:33.634Z,6.40
2023-02-08T15:15:02.075Z,5.80
2023-02-08T15:17:45.617Z,6.30
2023-02-08T15:20:31.950Z,4.00
2023-02-08T15:22:58.284Z,5.80
2023-02-08T15:25:29.723Z,5.60
2023-02-08T15:28:02.055Z,5.70
2023-02-08T15:30:36.356Z,6.60
2023-02-08T15:33:07.838Z,6.60
2023-02-08T15:35:34.277Z,8.70
2023-02-08T15:38:01.041Z,8.80
2023-02-08T15:40:32.330Z,9.60
2023-02-08T15:43:03.419Z,8.80
2023-02-08T15:45:30.225Z,10.40
2023-02-08T15:47:56.931Z,9.70
2023-02-08T15:50:23.909Z,9.10
2023-02-08T15:53:00.979Z,10.70
2023-02-08T15:55:30.180Z,8.00
2023-02-08T15:58:06.766Z,8.40
2023-02-08T16:00:35.257Z,7.30
2023-02-08T16:03:08.081Z,8.60
2023-02-08T16:05:34.996Z,7.10
2023-02-08T16:08:02.441Z,8.20
2023-02-08T16:10:33.826Z,7.10
2023-02-08T16:13:03.545Z,8.00
2023-02-08T16:15:36.716Z,7.20
2023-02-08T16:18:03.091Z,7.30
2023-02-08T16:20:33.957Z,7.10
2023-02-08T16:23:24.945Z,7.70
2023-02-08T16:25:51.429Z,7.60
2023-02-08T16:28:31.290Z,7.60
2023-02-08T16:30:59.896Z,7.30
2023-02-08T16:33:26.489Z,8.40
2023-02-08T16:36:01.115Z,7.60
2023-02-08T16:38:29.306Z,7.80
2023-02-08T16:40:58.647Z,7.60
2023-02-08T16:43:26.711Z,7.40
2023-02-08T16:46:15.563Z,8.60
2023-02-08T16:48:50.489Z,7.60
2023-02-08T16:51:21.274Z,9.10
2023-02-08T16:53:48.968Z,7.80
2023-02-08T16:56:15.760Z,7.00
2023-02-08T16:58:43.025Z,8.20
2023-02-08T17:01:11.405Z,7.80
2023-02-08T17:03:37.963Z,7.80
2023-02-08T17:06:04.920Z,8.30
2023-02-08T17:08:32.619Z,8.60
2023-02-08T17:10:59.356Z,9.10
2023-02-08T17:13:28.987Z,8.10
2023-02-08T17:15:57.664Z,9.30
2023-02-08T17:18:25.398Z,10.50
2023-02-08T17:20:57.161Z,7.80
2023-02-08T17:23:24.054Z,7.60
2023-02-08T17:25:51.193Z,7.40
2023-02-08T17:28:18.775Z,7.10
2023-02-08T17:30:46.500Z,7.10
2023-02-08T17:33:19.206Z,7.00
2023-02-08T17:35:48.386Z,7.50
2023-02-08T17:38:14.872Z,7.00
2023-02-08T17:40:42.500Z,8.10
2023-02-08T17:43:10.347Z,7.00
2023-02-08T17:45:38.870Z,7.10
2023-02-08T17:48:05.541Z,7.20
2023-02-08T17:50:31.908Z,7.40
2023-02-08T17:52:58.533Z,8.20
2023-02-08T17:55:25.003Z,7.40
2023-02-08T17:57:52.361Z,7.10
2023-02-08T18:00:20.909Z,7.20
2023-02-08T18:02:52.775Z,7.00
2023-02-08T18:05:21.351Z,7.40
2023-02-08T18:07:48.464Z,6.90
2023-02-08T18:10:16.243Z,7.70
2023-02-08T18:12:43.468Z,8.20
2023-02-08T18:15:12.725Z,7.70
2023-02-08T18:17:39.984Z,8.80
2023-02-08T18:20:07.460Z,7.90
2023-02-08T18:22:34.230Z,7.50
2023-02-08T18:25:04.101Z,7.20
2023-02-08T18:27:30.718Z,7.70
2023-02-08T18:29:58.394Z,7.70
2023-02-08T18:32:27.692Z,7.30
2023-02-08T18:34:54.642Z,7.40
2023-02-08T18:37:21.212Z,7.50
2023-02-08T18:39:48.968Z,7.20
2023-02-08T18:42:15.975Z,8.40
2023-02-08T18:44:42.461Z,7.70
2023-02-08T18:47:09.301Z,7.50
2023-02-08T18:49:40.149Z,7.00
2023-02-08T18:52:11.144Z,7.20
2023-02-08T18:54:39.320Z,7.10
2023-02-08T18:57:09.374Z,6.60
2023-02-08T18:59:36.935Z,7.70
2023-02-08T19:02:05.204Z,7.10
2023-02-08T19:04:36.150Z,6.80
2023-02-08T19:07:03.894Z,6.70
2023-02-08T19:09:34.722Z,6.90
2023-02-08T19:12:01.697Z,6.90
2023-02-08T19:14:28.953Z,6.00
2023-02-08T19:16:55.551Z,6.60
2023-02-08T19:19:22.228Z,6.80
2023-02-08T19:21:49.307Z,7.20
2023-02-08T19:24:16.233Z,7.20
2023-02-08T19:26:43.121Z,7.40
2023-02-08T19:29:13.476Z,8.30
2023-02-08T19:31:40.866Z,7.20
2023-02-08T19:34:08.466Z,6.80
2023-02-08T19:36:37.658Z,6.50
2023-02-08T19:39:05.328Z,6.70
2023-02-08T19:41:34.323Z,7.00
2023-02-08T19:44:04.347Z,6.00
2023-02-08T19:46:34.569Z,6.90
2023-02-08T19:49:01.422Z,6.10
2023-02-08T19:51:32.046Z,6.60
2023-02-08T19:54:00.396Z,6.00
2023-02-08T19:56:31.071Z,6.90
2023-02-08T19:58:57.762Z,7.20
2023-02-08T20:01:24.348Z,6.60
2023-02-08T20:03:53.134Z,6.40
2023-02-08T20:06:28.827Z,6.90
2023-02-08T20:08:57.438Z,7.30
2023-02-08T20:11:30.405Z,7.60
2023-02-08T20:13:58.507Z,7.30
2023-02-08T20:16:25.571Z,7.30
2023-02-08T20:18:52.252Z,7.00
2023-02-08T20:24:13.055Z,8.00
2023-02-08T20:26:41.460Z,7.80
2023-02-08T20:29:08.613Z,8.20
2023-02-08T20:31:37.435Z,8.00
2023-02-08T20:34:06.243Z,8.60
2023-02-08T20:36:40.209Z,7.50
2023-02-08T20:39:08.463Z,7.20
2023-02-08T20:41:35.512Z,7.40
2023-02-08T20:44:02.072Z,7.70
2023-02-08T20:46:34.187Z,7.60
2023-02-08T20:49:02.107Z,7.80
2023-02-08T20:51:29.557Z,7.00
2023-02-08T20:53:57.501Z,7.50
2023-02-08T20:56:26.983Z,7.70
2023-02-08T20:58:54.977Z,6.90
2023-02-08T21:01:24.038Z,7.20
2023-02-08T21:03:59.226Z,7.20
2023-02-08T21:06:32.191Z,7.20
2023-02-08T21:09:00.373Z,7.60
2023-02-08T21:11:34.211Z,7.70
2023-02-08T21:14:02.776Z,9.20
2023-02-08T21:16:32.538Z,9.90
2023-02-08T21:19:02.588Z,8.80
2023-02-08T21:21:30.869Z,8.50
2023-02-08T21:24:01.557Z,7.90
2023-02-08T21:26:30.824Z,7.60
2023-02-08T21:28:59.157Z,8.40
2023-02-08T21:31:27.171Z,7.30
2023-02-08T21:33:55.994Z,7.50
2023-02-08T21:43:28.256Z,8.30
2023-02-08T21:45:57.112Z,7.80
2023-02-08T21:48:25.852Z,8.20
2023-02-08T21:51:11.922Z,8.60
2023-02-08T21:53:59.118Z,7.10
2023-02-08T21:56:27.720Z,5.90
2023-02-08T21:58:57.333Z,6.60
2023-02-08T22:01:24.847Z,9.00
2023-02-08T22:03:52.265Z,10.20
2023-02-08T22:06:38.184Z,10.50
2023-02-08T22:09:06.668Z,11.00
2023-02-08T22:11:34.125Z,10.00
2023-02-08T22:14:01.359Z,10.80
2023-02-08T22:16:29.792Z,11.10
2023-02-08T22:18:57.670Z,11.50
2023-02-08T22:21:27.113Z,10.70
2023-02-08T22:23:57.698Z,10.60
2023-02-08T22:26:25.066Z,11.90
2023-02-08T22:28:53.021Z,10.90
2023-02-08T22:31:21.020Z,11.70
2023-02-08T22:33:49.074Z,12.30
2023-02-08T22:36:17.802Z,11.20
2023-02-08T22:38:45.405Z,9.30
2023-02-08T22:41:15.084Z,9.50
2023-02-08T22:43:42.531Z,11.50
2023-02-08T22:46:10.469Z,10.30
2023-02-08T22:48:39.382Z,11.50
2023-02-08T22:51:12.123Z,11.80
2023-02-08T22:53:39.888Z,11.70
2023-02-08T22:56:07.554Z,10.70
2023-02-08T22:58:35.809Z,11.30
2023-02-08T23:01:03.695Z,11.10
2023-02-08T23:03:31.661Z,12.70
2023-02-08T23:05:59.752Z,12.50
2023-02-08T23:08:27.336Z,14.50
2023-02-08T23:11:03.703Z,13.20
2023-02-08T23:13:33.227Z,13.80
2023-02-08T23:16:01.072Z,14.60
2023-02-08T23:18:28.865Z,11.00
2023-02-08T23:20:56.381Z,13.20
2023-02-08T23:23:23.731Z,12.00
2023-02-08T23:25:51.474Z,12.00
2023-02-08T23:28:19.737Z,10.40
2023-02-08T23:30:47.586Z,10.00
2023-02-08T23:33:15.369Z,9.50
2023-02-08T23:35:43.016Z,9.30
2023-02-08T23:38:10.289Z,9.20
2023-02-08T23:40:37.177Z,9.20
2023-02-08T23:43:04.358Z,9.00
2023-02-08T23:45:31.981Z,8.70
2023-02-08T23:47:59.308Z,9.30
2023-02-08T23:50:26.313Z,10.30
2023-02-08T23:52:56.696Z,11.10
2023-02-08T23:55:23.911Z,11.30
2023-02-08T23:57:50.873Z,11.50
